Time;durP1;ratioP1;P1;durP2;ratioP2;P2;SDS_P1;SDS_P2;PMS_P1;PMS_P2;Temp;Humidity;BMP_temperature;BMP_pressure;BME280_temperature;BME280_humidity;BME280_pressure;Samples;Min_cycle;Max_cycle;Signal;HPM_P1;HPM_P2
2022/03/29 00:03:04;;;;;;;15.50;7.90;;;15.60;91.90;;;;;;5012998;28;20482;-71
2022/03/29 00:05:38;;;;;;;14.70;7.67;;;15.60;91.90;;;;;;5013308;28;20821;-71
2022/03/29 00:08:28;;;;;;;11.30;7.50;;;15.60;91.90;;;;;;5011994;28;20726;-71
2022/03/29 00:10:56;;;;;;;14.40;7.60;;;15.60;92.00;;;;;;4988869;28;20463;-71
2022/03/29 00:13:31;;;;;;;13.50;8.43;;;15.60;92.00;;;;;;5006269;28;20450;-72
2022/03/29 00:15:57;;;;;;;11.00;6.50;;;15.50;92.00;;;;;;5011661;28;20545;-71
2022/03/29 00:19:33;;;;;;;11.43;6.80;;;15.50;92.00;;;;;;5012788;28;20447;-71
2022/03/29 00:23:10;;;;;;;9.43;7.07;;;15.50;92.00;;;;;;5010130;28;20629;-71
2022/03/29 00:26:25;;;;;;;13.10;7.37;;;15.50;92.00;;;;;;5011314;28;20969;-71
2022/03/29 00:28:52;;;;;;;15.63;7.40;;;15.50;92.00;;;;;;4995408;28;20462;-71
2022/03/29 00:32:08;;;;;;;11.83;7.37;;;15.50;92.10;;;;;;5012499;28;20966;-71
2022/03/29 00:34:59;;;;;;;11.77;7.80;;;15.40;92.00;;;;;;4982067;28;21243;-71
2022/03/29 00:37:29;;;;;;;14.93;7.63;;;15.40;92.00;;;;;;5001644;28;21007;-71
2022/03/29 00:39:55;;;;;;;11.37;7.73;;;15.40;92.00;;;;;;4997617;28;20426;-71
2022/03/29 00:42:22;;;;;;;12.20;6.97;;;15.40;92.10;;;;;;4998708;28;20423;-71
2022/03/29 00:45:38;;;;;;;10.47;6.77;;;15.40;92.10;;;;;;5008344;28;20502;-71
2022/03/29 00:48:08;;;;;;;12.90;6.83;;;15.40;92.10;;;;;;5012524;28;20427;-71
2022/03/29 00:50:38;;;;;;;13.93;7.63;;;15.30;92.10;;;;;;5011639;28;20410;-71
2022/03/29 00:53:09;;;;;;;12.40;7.00;;;15.40;92.10;;;;;;5010376;28;20440;-71
2022/03/29 00:56:02;;;;;;;10.07;8.00;;;15.30;92.10;;;;;;5012828;28;20444;-71
2022/03/29 00:58:56;;;;;;;12.47;7.43;;;15.30;92.10;;;;;;5011812;28;20458;-71
2022/03/29 01:01:48;;;;;;;15.13;7.87;;;15.30;92.10;;;;;;5027004;28;20439;-72
2022/03/29 01:04:39;;;;;;;12.43;6.73;;;15.30;92.10;;;;;;5012959;28;20415;-71
2022/03/29 01:07:08;;;;;;;12.63;7.37;;;15.30;92.10;;;;;;5012359;28;20494;-71
2022/03/29 01:09:37;;;;;;;11.60;7.40;;;15.30;92.10;;;;;;5012766;28;20909;-71
2022/03/29 01:12:04;;;;;;;13.53;7.90;;;15.30;92.10;;;;;;5011788;28;20448;-71
2022/03/29 01:14:55;;;;;;;12.97;8.03;;;15.30;92.10;;;;;;5027134;28;20591;-71
2022/03/29 01:17:40;;;;;;;13.20;8.33;;;15.30;92.10;;;;;;5011942;28;20423;-71
2022/03/29 01:20:33;;;;;;;13.13;7.57;;;15.20;92.10;;;;;;5027196;28;20433;-71
2022/03/29 01:23:01;;;;;;;14.00;8.20;;;15.20;92.10;;;;;;5010505;28;20444;-71
2022/03/29 01:25:35;;;;;;;14.30;8.20;;;15.20;92.10;;;;;;5027682;28;20439;-71
2022/03/29 01:28:03;;;;;;;11.43;7.17;;;15.20;92.10;;;;;;5011039;28;20416;-71
2022/03/29 01:31:20;;;;;;;13.13;7.30;;;15.20;92.10;;;;;;5011134;28;20489;-71
2022/03/29 01:34:37;;;;;;;11.80;7.60;;;15.20;92.10;;;;;;5027100;28;20422;-71
2022/03/29 01:37:05;;;;;;;10.40;7.13;;;15.20;92.10;;;;;;5011456;28;20474;-71
2022/03/29 01:39:39;;;;;;;9.63;6.77;;;15.20;92.10;;;;;;4994687;28;20422;-71
2022/03/29 01:42:30;;;;;;;16.50;8.03;;;15.10;92.10;;;;;;5009407;28;20817;-71
2022/03/29 01:44:56;;;;;;;11.00;7.80;;;15.10;92.10;;;;;;5011190;28;20428;-71
2022/03/29 01:48:12;;;;;;;9.90;7.00;;;15.10;92.10;;;;;;5009715;28;20459;-71
2022/03/29 01:50:48;;;;;;;12.00;7.53;;;15.10;92.20;;;;;;5010016;28;20372;-71
2022/03/29 01:53:27;;;;;;;13.57;7.93;;;15.10;92.20;;;;;;5010440;28;20434;-71
2022/03/29 01:55:59;;;;;;;14.10;7.40;;;15.10;92.20;;;;;;5010206;28;20463;-71
2022/03/29 02:03:00;;;;;;;11.70;7.47;;;15.00;92.20;;;;;;5011982;28;20787;-71
2022/03/29 02:06:20;;;;;;;12.00;7.80;;;15.00;92.20;;;;;;5010520;28;20459;-71
2022/03/29 02:09:40;;;;;;;14.83;7.80;;;15.00;92.30;;;;;;5010428;28;20411;-71
2022/03/29 02:12:12;;;;;;;11.87;7.60;;;15.00;92.30;;;;;;5025417;28;20504;-71
2022/03/29 02:15:29;;;;;;;13.53;7.67;;;15.00;92.30;;;;;;5019229;28;20417;-71
2022/03/29 02:18:54;;;;;;;11.20;7.50;;;14.90;92.30;;;;;;5026318;28;20861;-71
2022/03/29 02:21:24;;;;;;;10.30;7.40;;;14.90;92.40;;;;;;4991587;28;20418;-71
2022/03/29 02:23:50;;;;;;;10.27;7.00;;;14.90;92.40;;;;;;4993333;28;20986;-71
2022/03/29 02:26:16;;;;;;;10.67;7.53;;;14.90;92.40;;;;;;5010236;28;20520;-71
2022/03/29 02:28:45;;;;;;;14.47;8.23;;;14.90;92.40;;;;;;4993303;28;20277;-71
2022/03/29 02:31:11;;;;;;;12.03;8.37;;;14.90;92.40;;;;;;5043827;23;20929;-96
2022/03/29 02:33:37;;;;;;;12.70;7.93;;;14.90;92.40;;;;;;5038806;28;20603;-96
2022/03/29 02:36:04;;;;;;;12.13;8.20;;;14.90;92.40;;;;;;5035255;28;20457;-96
2022/03/29 02:38:30;;;;;;;11.90;8.10;;;14.90;92.40;;;;;;5035760;28;20468;-96
2022/03/29 02:40:58;;;;;;;10.80;7.80;;;14.90;92.40;;;;;;5021636;28;20811;-95
2022/03/29 02:43:25;;;;;;;13.23;7.77;;;14.90;92.40;;;;;;5051663;28;20416;-96
2022/03/29 02:45:51;;;;;;;12.50;7.63;;;14.90;92.40;;;;;;5035260;28;20450;-96
2022/03/29 02:48:17;;;;;;;11.43;7.90;;;14.80;92.40;;;;;;5035715;28;20462;-96
2022/03/29 02:50:46;;;;;;;12.30;7.80;;;14.80;92.40;;;;;;5035339;28;20913;-96
2022/03/29 02:53:15;;;;;;;14.20;8.43;;;14.80;92.40;;;;;;5035342;28;20439;-96
2022/03/29 02:55:50;;;;;;;14.70;8.27;;;14.80;92.50;;;;;;5019860;28;20511;-96
2022/03/29 02:58:16;;;;;;;11.70;8.17;;;14.80;92.50;;;;;;5035008;28;20412;-96
2022/03/29 03:00:42;;;;;;;14.40;8.37;;;14.80;92.50;;;;;;5029889;28;20961;-96
2022/03/29 03:03:08;;;;;;;13.07;8.60;;;14.80;92.50;;;;;;5038094;28;20438;-96
2022/03/29 03:05:37;;;;;;;12.10;9.10;;;14.80;92.50;;;;;;5038769;28;20914;-96
2022/03/29 03:08:03;;;;;;;11.00;8.17;;;14.80;92.50;;;;;;5053374;28;20428;-95
2022/03/29 03:10:30;;;;;;;12.43;8.63;;;14.80;92.60;;;;;;5034841;28;20482;-96
2022/03/29 03:13:01;;;;;;;11.97;7.90;;;14.70;92.50;;;;;;5020559;28;20463;-95
2022/03/29 03:15:27;;;;;;;13.90;8.43;;;14.70;92.50;;;;;;5018595;28;20412;-96
2022/03/29 03:17:54;;;;;;;11.63;8.87;;;14.70;92.60;;;;;;5031999;28;20438;-95
2022/03/29 03:20:24;;;;;;;14.33;8.43;;;14.70;92.60;;;;;;5039283;28;20460;-96
2022/03/29 03:22:51;;;;;;;11.20;8.90;;;14.70;92.60;;;;;;5042183;28;20426;-96
2022/03/29 03:25:19;;;;;;;11.67;7.90;;;14.70;92.60;;;;;;5042658;28;20418;-96
2022/03/29 03:27:46;;;;;;;14.70;9.03;;;14.70;92.60;;;;;;5042221;28;20458;-96
2022/03/29 03:30:17;;;;;;;12.43;8.63;;;14.70;92.60;;;;;;5058757;28;20506;-96
2022/03/29 03:32:46;;;;;;;14.00;8.93;;;14.70;92.60;;;;;;5042123;28;20456;-96
2022/03/29 03:35:12;;;;;;;12.93;9.10;;;14.70;92.70;;;;;;5041952;28;20438;-96
2022/03/29 03:37:41;;;;;;;14.20;8.80;;;14.70;92.70;;;;;;5042541;28;20435;-95
2022/03/29 03:40:10;;;;;;;16.40;9.43;;;14.60;92.60;;;;;;5041595;28;20455;-96
2022/03/29 03:42:37;;;;;;;15.67;9.43;;;14.60;92.70;;;;;;5058822;28;20505;-96
2022/03/29 03:45:06;;;;;;;11.60;8.93;;;14.60;92.70;;;;;;5037399;28;20886;-96
2022/03/29 03:47:35;;;;;;;14.23;8.47;;;14.60;92.70;;;;;;5045542;28;20470;-91
2022/03/29 03:50:02;;;;;;;13.13;8.87;;;14.60;92.80;;;;;;5041962;28;20426;-95
2022/03/29 03:52:28;;;;;;;15.37;9.60;;;14.60;92.80;;;;;;5058798;28;20795;-95
2022/03/29 03:54:55;;;;;;;13.60;9.83;;;14.60;92.80;;;;;;5041500;28;20566;-96
2022/03/29 03:57:22;;;;;;;12.20;9.93;;;14.50;92.70;;;;;;5059104;28;20170;-96
2022/03/29 03:59:50;;;;;;;13.73;9.53;;;14.60;92.80;;;;;;5041709;28;20439;-96
2022/03/29 04:02:19;;;;;;;16.60;10.53;;;14.50;92.80;;;;;;5042288;28;20531;-96
2022/03/29 04:04:55;;;;;;;16.70;10.00;;;14.60;92.90;;;;;;5045436;28;20410;-96
2022/03/29 04:07:28;;;;;;;14.53;10.17;;;14.50;92.80;;;;;;5059916;28;20452;-96
2022/03/29 04:10:02;;;;;;;13.17;8.90;;;14.50;92.90;;;;;;5043973;28;20461;-96
2022/03/29 04:12:30;;;;;;;15.77;10.20;;;14.50;92.90;;;;;;5026577;28;20477;-96
2022/03/29 04:14:58;;;;;;;14.90;10.20;;;14.50;92.90;;;;;;5042520;28;20465;-94
2022/03/29 04:17:27;;;;;;;14.43;10.70;;;14.50;92.90;;;;;;5059527;28;20415;-96
2022/03/29 04:19:55;;;;;;;14.77;10.77;;;14.50;92.90;;;;;;5041455;28;20444;-95
2022/03/29 04:22:21;;;;;;;13.70;9.70;;;14.50;92.90;;;;;;5058859;28;20427;-96
2022/03/29 04:24:52;;;;;;;16.10;10.50;;;14.50;93.00;;;;;;5041040;28;20457;-95
2022/03/29 04:27:18;;;;;;;14.87;10.40;;;14.50;93.00;;;;;;5057729;28;20989;-96
2022/03/29 04:29:44;;;;;;;13.43;10.47;;;14.50;93.00;;;;;;5057714;28;20445;-95
2022/03/29 04:32:10;;;;;;;16.30;10.37;;;14.40;93.00;;;;;;5057486;28;20477;-96
2022/03/29 04:34:36;;;;;;;14.10;10.20;;;14.40;93.00;;;;;;5057496;28;20441;-95
2022/03/29 04:37:02;;;;;;;17.00;10.77;;;14.40;93.00;;;;;;5024449;28;20461;-95
2022/03/29 04:39:30;;;;;;;12.47;10.33;;;14.40;93.00;;;;;;5057686;28;20446;-96
2022/03/29 04:41:57;;;;;;;13.73;10.80;;;14.40;93.00;;;;;;5057396;28;20481;-94
2022/03/29 04:44:26;;;;;;;17.00;11.37;;;14.40;93.00;;;;;;5057365;28;20812;-95
2022/03/29 04:46:52;;;;;;;15.27;11.03;;;14.40;93.10;;;;;;5040627;28;20450;-95
2022/03/29 04:49:18;;;;;;;13.40;10.37;;;14.40;93.10;;;;;;5057256;28;20412;-96
2022/03/29 04:51:44;;;;;;;15.23;10.60;;;14.40;93.10;;;;;;5040494;28;20462;-95
2022/03/29 04:54:10;;;;;;;16.43;11.50;;;14.30;93.10;;;;;;5040915;28;20444;-95
2022/03/29 04:56:36;;;;;;;15.33;11.50;;;14.40;93.10;;;;;;5040278;28;20876;-94
2022/03/29 04:59:02;;;;;;;12.90;10.40;;;14.30;93.10;;;;;;5052003;28;20438;-95
2022/03/29 05:01:28;;;;;;;18.00;11.63;;;14.30;93.10;;;;;;5020374;28;20446;-95
2022/03/29 05:03:54;;;;;;;18.73;11.70;;;14.30;93.10;;;;;;5021019;28;20529;-96
2022/03/29 05:06:20;;;;;;;14.83;12.07;;;14.30;93.10;;;;;;5020442;28;20856;-95
2022/03/29 05:08:46;;;;;;;16.37;11.30;;;14.30;93.20;;;;;;5021468;28;22387;-94
2022/03/29 05:11:11;;;;;;;15.60;12.10;;;14.30;93.20;;;;;;5020226;28;20487;-94
2022/03/29 05:13:37;;;;;;;16.87;11.00;;;14.30;93.20;;;;;;5020371;28;20434;-95
2022/03/29 05:16:04;;;;;;;18.20;12.03;;;14.30;93.20;;;;;;5036513;28;20886;-93
2022/03/29 05:18:30;;;;;;;20.90;12.87;;;14.30;93.20;;;;;;5020540;28;20428;-96
2022/03/29 05:20:55;;;;;;;18.27;12.07;;;14.30;93.30;;;;;;5020511;28;20431;-94
2022/03/29 05:23:23;;;;;;;18.93;12.90;;;14.30;93.30;;;;;;5026639;28;20442;-95
2022/03/29 05:25:49;;;;;;;17.80;12.53;;;14.20;93.20;;;;;;5056491;28;20431;-95
2022/03/29 05:28:15;;;;;;;18.83;13.23;;;14.30;93.30;;;;;;5076322;28;20447;-95
2022/03/29 05:30:41;;;;;;;18.07;11.73;;;14.20;93.20;;;;;;5076462;28;20451;-95
2022/03/29 05:33:10;;;;;;;19.23;13.33;;;14.20;93.30;;;;;;5076065;28;20855;-95
2022/03/29 05:35:36;;;;;;;18.40;12.77;;;14.20;93.30;;;;;;5076228;28;20437;-93
2022/03/29 05:38:03;;;;;;;20.50;13.30;;;14.20;93.30;;;;;;5076218;28;20481;-94
2022/03/29 05:40:30;;;;;;;20.10;13.50;;;14.20;93.30;;;;;;5056162;28;20418;-95
2022/03/29 05:42:56;;;;;;;20.83;11.77;;;14.20;93.30;;;;;;5039131;28;20479;-95
2022/03/29 05:45:23;;;;;;;19.57;13.10;;;14.10;93.30;;;;;;5055674;28;20443;-94
2022/03/29 05:50:33;;;;;;;18.63;13.77;;;14.10;93.30;;;;;;5036078;28;20753;-95
2022/03/29 05:53:01;;;;;;;18.00;13.00;;;14.10;93.40;;;;;;5020204;28;20923;-94
2022/03/29 05:55:28;;;;;;;19.13;13.40;;;14.20;93.40;;;;;;5019927;28;20443;-96
2022/03/29 05:57:54;;;;;;;15.77;12.57;;;14.10;93.40;;;;;;5035912;28;20513;-95
2022/03/29 06:00:23;;;;;;;20.37;13.97;;;14.10;93.40;;;;;;5019445;28;20433;-94
2022/03/29 06:02:50;;;;;;;19.37;12.93;;;14.10;93.40;;;;;;5025235;28;20758;-95
2022/03/29 06:05:16;;;;;;;23.23;14.30;;;14.10;93.40;;;;;;5038951;28;20430;-94
2022/03/29 06:07:42;;;;;;;21.57;13.93;;;14.10;93.50;;;;;;5039089;28;20457;-94
2022/03/29 06:10:08;;;;;;;19.60;13.90;;;14.10;93.50;;;;;;5038870;28;20421;-92
2022/03/29 06:12:36;;;;;;;23.47;15.27;;;14.10;93.50;;;;;;5038817;28;20472;-94
2022/03/29 06:15:04;;;;;;;23.27;15.07;;;14.10;93.50;;;;;;5055413;28;20507;-95
2022/03/29 06:17:30;;;;;;;26.03;16.33;;;14.00;93.50;;;;;;5039774;28;20434;-94
2022/03/29 06:19:56;;;;;;;20.33;14.40;;;14.10;93.60;;;;;;5055486;28;20409;-91
2022/03/29 06:22:22;;;;;;;22.07;13.40;;;14.00;93.50;;;;;;5039162;28;20473;-94
2022/03/29 06:24:49;;;;;;;18.97;14.00;;;14.00;93.60;;;;;;5038580;28;20452;-95
2022/03/29 06:27:16;;;;;;;22.77;15.00;;;14.00;93.60;;;;;;5039207;28;20450;-96
2022/03/29 06:29:42;;;;;;;25.03;16.73;;;14.00;93.60;;;;;;5032992;28;20435;-95
2022/03/29 06:32:08;;;;;;;22.00;15.03;;;14.00;93.60;;;;;;5034953;28;20491;-96
2022/03/29 06:34:34;;;;;;;24.73;15.77;;;14.00;93.60;;;;;;5018953;28;20169;-93
2022/03/29 06:37:00;;;;;;;19.27;15.10;;;14.00;94.00;;;;;;5018657;28;20463;-92
2022/03/29 06:39:27;;;;;;;22.10;16.53;;;14.00;93.70;;;;;;5035056;28;20455;-93
2022/03/29 06:41:55;;;;;;;19.53;15.10;;;14.00;93.70;;;;;;5019039;28;20467;-92
2022/03/29 06:44:22;;;;;;;22.87;15.67;;;14.00;93.70;;;;;;5044407;28;20528;-94
2022/03/29 06:46:49;;;;;;;23.50;15.67;;;14.00;93.70;;;;;;5034734;28;20461;-93
2022/03/29 06:49:41;;;;;;;24.70;16.50;;;14.00;93.70;;;;;;5037450;28;20426;-94
2022/03/29 06:52:10;;;;;;;23.90;15.77;;;14.00;93.80;;;;;;5030597;28;20472;-93
2022/03/29 06:54:37;;;;;;;27.83;17.50;;;13.90;93.80;;;;;;5044474;28;20567;-93
2022/03/29 06:57:05;;;;;;;24.97;17.67;;;13.90;93.80;;;;;;5049729;28;20807;-94
2022/03/29 06:59:31;;;;;;;23.33;15.57;;;13.90;93.80;;;;;;5032524;28;20458;-94
2022/03/29 07:06:17;;;;;;;22.73;16.07;;;13.90;93.80;;;;;;5052745;22;20488;-78
2022/03/29 07:11:30;;;;;;;25.23;16.87;;;13.90;93.90;;;;;;5030735;28;20485;-77
2022/03/29 07:13:56;;;;;;;24.70;17.10;;;13.90;94.00;;;;;;5024105;28;20425;-77
2022/03/29 07:19:16;;;;;;;27.70;17.70;;;13.80;94.00;;;;;;5028785;28;20543;-79
2022/03/29 07:22:10;;;;;;;23.70;16.40;;;13.80;94.00;;;;;;5027485;28;20816;-78
2022/03/29 07:24:39;;;;;;;22.93;16.60;;;13.90;94.00;;;;;;5042581;28;20448;-80
2022/03/29 07:27:07;;;;;;;22.13;16.20;;;13.80;94.00;;;;;;5009874;28;20546;-79
2022/03/29 07:30:03;;;;;;;26.43;18.07;;;13.80;94.00;;;;;;5045332;28;20429;-78
2022/03/29 07:32:32;;;;;;;23.13;16.37;;;13.90;94.10;;;;;;5043281;28;20461;-78
2022/03/29 07:35:27;;;;;;;27.43;17.40;;;13.90;94.10;;;;;;5038443;28;20937;-78
2022/03/29 07:37:54;;;;;;;25.60;17.20;;;13.80;94.00;;;;;;5026615;28;20904;-78
2022/03/29 07:40:24;;;;;;;24.37;17.30;;;13.80;94.00;;;;;;5027597;28;20464;-77
2022/03/29 07:42:54;;;;;;;26.30;18.57;;;13.80;94.00;;;;;;5045259;28;20979;-78
2022/03/29 07:45:21;;;;;;;21.77;16.20;;;13.80;94.40;;;;;;5036128;28;20458;-80
2022/03/29 07:48:20;;;;;;;26.70;18.70;;;13.80;94.10;;;;;;5036357;28;20413;-79
2022/03/29 07:50:46;;;;;;;25.40;18.07;;;13.80;94.00;;;;;;5008835;28;20433;-78
2022/03/29 07:53:15;;;;;;;24.80;17.30;;;13.80;94.10;;;;;;5054765;28;20457;-79
2022/03/29 07:56:08;;;;;;;24.90;18.17;;;13.80;94.00;;;;;;5019816;28;20442;-79
2022/03/29 07:58:36;;;;;;;25.33;17.27;;;13.80;94.10;;;;;;5020069;28;20554;-79
2022/03/29 08:01:04;;;;;;;24.43;18.90;;;13.80;94.10;;;;;;5053628;28;20400;-77
2022/03/29 08:03:33;;;;;;;24.80;17.30;;;13.80;94.10;;;;;;5035987;28;20403;-79
2022/03/29 08:06:01;;;;;;;26.93;17.37;;;13.80;94.10;;;;;;5019197;28;20448;-79
2022/03/29 08:08:43;;;;;;;23.27;17.00;;;13.80;94.00;;;;;;5022976;28;20435;-78
2022/03/29 08:11:13;;;;;;;26.20;19.60;;;13.80;94.10;;;;;;5008438;28;20450;-78
2022/03/29 08:13:46;;;;;;;25.67;19.10;;;13.80;94.10;;;;;;5034872;28;20521;-79
2022/03/29 08:16:36;;;;;;;26.13;19.23;;;13.80;94.10;;;;;;5037451;28;20463;-78
2022/03/29 08:19:09;;;;;;;25.50;18.80;;;13.80;94.20;;;;;;5047175;28;20423;-78
2022/03/29 08:21:51;;;;;;;28.97;19.53;;;13.80;94.20;;;;;;5032133;28;20502;-81
2022/03/29 08:24:25;;;;;;;27.87;20.63;;;13.80;94.20;;;;;;5013101;28;20957;-78
2022/03/29 08:26:55;;;;;;;29.40;19.00;;;13.80;94.20;;;;;;5035435;28;20453;-78
2022/03/29 08:29:21;;;;;;;29.20;20.30;;;13.80;94.20;;;;;;5001440;28;20444;-78
2022/03/29 08:31:52;;;;;;;27.40;18.63;;;13.80;94.20;;;;;;5032674;28;20562;-77
2022/03/29 08:34:18;;;;;;;30.33;20.50;;;13.80;94.20;;;;;;5027911;28;20962;-78
2022/03/29 08:36:49;;;;;;;26.53;19.23;;;13.80;94.20;;;;;;5050318;28;20544;-75
2022/03/29 08:39:16;;;;;;;29.50;20.07;;;13.80;94.30;;;;;;5002742;28;20452;-75
2022/03/29 08:41:52;;;;;;;33.53;23.03;;;13.80;94.30;;;;;;5009912;28;20450;-77
2022/03/29 08:44:26;;;;;;;32.10;21.40;;;13.80;94.30;;;;;;5041520;28;20443;-77
2022/03/29 08:46:57;;;;;;;35.90;22.53;;;13.80;94.30;;;;;;5048005;28;20444;-77
2022/03/29 08:49:24;;;;;;;32.90;22.90;;;13.80;94.30;;;;;;5032543;28;20492;-78
2022/03/29 08:51:51;;;;;;;31.90;22.43;;;13.80;94.30;;;;;;5051335;28;20470;-75
2022/03/29 08:54:19;;;;;;;33.00;21.03;;;13.90;94.30;;;;;;5031704;28;20449;-79
2022/03/29 08:56:46;;;;;;;33.57;22.93;;;13.80;94.30;;;;;;5034178;28;20520;-77
2022/03/29 08:59:15;;;;;;;34.27;24.60;;;13.90;94.30;;;;;;5031063;28;20483;-78
2022/03/29 09:01:41;;;;;;;33.93;22.73;;;13.90;94.30;;;;;;5010345;28;20462;-78
2022/03/29 09:04:12;;;;;;;37.63;23.20;;;13.90;94.30;;;;;;5025581;28;20445;-79
2022/03/29 09:07:01;;;;;;;32.80;21.47;;;13.90;94.40;;;;;;5029545;28;20472;-78
2022/03/29 09:09:40;;;;;;;33.43;24.30;;;13.90;94.40;;;;;;5029100;28;20474;-79
2022/03/29 09:12:18;;;;;;;31.73;21.43;;;13.90;94.40;;;;;;5028406;28;20473;-79
2022/03/29 09:14:59;;;;;;;41.80;25.23;;;13.90;94.40;;;;;;4998765;28;20459;-79
2022/03/29 09:17:45;;;;;;;38.80;24.07;;;13.90;94.40;;;;;;5053360;28;20421;-79
2022/03/29 09:20:22;;;;;;;38.77;24.60;;;13.90;94.50;;;;;;5028217;28;20778;-79
2022/03/29 09:22:55;;;;;;;39.10;22.80;;;13.90;94.50;;;;;;5034253;28;20449;-79
2022/03/29 09:25:38;;;;;;;43.23;25.30;;;13.90;94.50;;;;;;5018111;28;20527;-78
2022/03/29 09:28:13;;;;;;;42.97;24.40;;;13.90;94.50;;;;;;5014766;28;20464;-78
2022/03/29 09:30:41;;;;;;;45.33;27.77;;;13.90;94.60;;;;;;5028169;28;20960;-77
2022/03/29 09:33:13;;;;;;;44.17;28.00;;;13.80;94.60;;;;;;5034454;28;21050;-79
2022/03/29 09:35:59;;;;;;;36.23;24.20;;;13.90;94.70;;;;;;5032088;28;20485;-77
2022/03/29 09:38:41;;;;;;;42.60;25.10;;;13.90;94.80;;;;;;5032279;28;20467;-77
2022/03/29 09:41:35;;;;;;;40.40;25.20;;;13.90;94.60;;;;;;5023609;28;20428;-76
2022/03/29 09:44:36;;;;;;;42.90;24.30;;;13.90;94.40;;;;;;5019242;28;20434;-78
2022/03/29 09:47:27;;;;;;;46.50;27.20;;;13.90;94.50;;;;;;5048601;28;20499;-79
2022/03/29 09:49:53;;;;;;;43.13;26.27;;;13.90;94.60;;;;;;5015834;28;22029;-78
2022/03/29 09:52:31;;;;;;;42.67;25.87;;;13.80;94.60;;;;;;4999031;28;20482;-79
2022/03/29 09:55:09;;;;;;;43.60;25.90;;;13.80;94.70;;;;;;5029855;28;20820;-79
2022/03/29 09:57:40;;;;;;;46.53;26.87;;;13.90;94.70;;;;;;4991796;28;20466;-77
2022/03/29 10:00:11;;;;;;;46.47;28.30;;;13.90;94.70;;;;;;5030326;28;20460;-79
2022/03/29 10:02:42;;;;;;;45.83;25.97;;;13.90;94.60;;;;;;5041689;28;20966;-77
2022/03/29 10:05:19;;;;;;;43.10;27.23;;;13.80;94.50;;;;;;5042442;28;20444;-78
2022/03/29 10:11:09;;;;;;;42.03;26.00;;;13.90;94.50;;;;;;5015645;28;20625;-78
2022/03/29 10:13:38;;;;;;;41.53;26.07;;;13.90;94.50;;;;;;5032650;28;20437;-79
2022/03/29 10:16:06;;;;;;;48.83;27.23;;;13.90;94.60;;;;;;5013146;28;20452;-79
2022/03/29 10:18:34;;;;;;;44.83;26.33;;;13.90;94.70;;;;;;5025737;28;20919;-78
2022/03/29 10:21:04;;;;;;;44.43;27.60;;;13.90;94.70;;;;;;4998893;28;20475;-79
2022/03/29 10:23:31;;;;;;;49.70;27.57;;;13.90;94.60;;;;;;5015461;28;20932;-78
2022/03/29 10:28:52;;;;;;;57.70;30.90;;;13.90;94.50;;;;;;5029103;28;20423;-77
2022/03/29 10:32:06;;;;;;;45.50;27.60;;;13.90;94.50;;;;;;5015003;28;20827;-78
2022/03/29 10:34:42;;;;;;;53.90;30.73;;;13.90;94.50;;;;;;5029116;28;20455;-76
2022/03/29 10:37:55;;;;;;;51.30;29.03;;;14.00;94.50;;;;;;5025829;28;20435;-76
2022/03/29 10:40:41;;;;;;;46.33;27.63;;;14.00;94.60;;;;;;5026999;28;20832;-77
2022/03/29 10:43:32;;;;;;;45.90;27.60;;;13.90;94.50;;;;;;5015971;28;20441;-77
2022/03/29 10:45:59;;;;;;;51.73;29.90;;;14.00;94.50;;;;;;5048598;28;20527;-77
2022/03/29 10:48:27;;;;;;;48.07;26.50;;;14.00;94.60;;;;;;5029733;28;20453;-77
2022/03/29 10:50:57;;;;;;;54.23;31.10;;;14.00;94.60;;;;;;5024650;28;20439;-76
2022/03/29 10:53:34;;;;;;;51.40;30.30;;;14.00;94.70;;;;;;5032274;28;20433;-76
2022/03/29 10:56:15;;;;;;;54.17;29.53;;;14.00;94.80;;;;;;5007436;28;20547;-77
2022/03/29 10:59:04;;;;;;;49.43;29.93;;;14.00;94.60;;;;;;5016324;28;20438;-76
2022/03/29 11:01:32;;;;;;;48.57;28.67;;;14.00;94.60;;;;;;5048212;28;20437;-77
2022/03/29 11:04:10;;;;;;;50.73;29.10;;;14.00;94.60;;;;;;5048524;28;20971;-77
2022/03/29 11:06:36;;;;;;;45.90;28.23;;;14.00;94.70;;;;;;5009447;28;20447;-76
2022/03/29 11:09:31;;;;;;;49.23;30.43;;;14.00;94.60;;;;;;5026252;28;20434;-75
2022/03/29 11:12:01;;;;;;;47.97;27.90;;;14.10;94.70;;;;;;5045042;28;20580;-75
2022/03/29 11:14:52;;;;;;;49.87;29.77;;;14.10;94.70;;;;;;5006371;28;20517;-75
2022/03/29 11:17:18;;;;;;;44.90;27.20;;;14.10;94.60;;;;;;4998280;28;20460;-77
2022/03/29 11:19:48;;;;;;;46.87;29.20;;;14.10;94.60;;;;;;5021759;28;20475;-76
2022/03/29 11:22:34;;;;;;;48.03;29.93;;;14.10;94.60;;;;;;5041617;28;20425;-75
2022/03/29 11:25:05;;;;;;;49.97;30.47;;;14.10;94.60;;;;;;5018108;28;20438;-76
2022/03/29 11:30:25;;;;;;;52.07;31.87;;;14.20;94.60;;;;;;5013371;28;20886;-75
2022/03/29 11:32:59;;;;;;;48.27;29.70;;;14.20;94.60;;;;;;5008068;28;20450;-77
2022/03/29 11:35:35;;;;;;;51.93;30.77;;;14.20;94.60;;;;;;5018339;28;20456;-75
2022/03/29 11:38:16;;;;;;;49.60;29.63;;;14.20;94.50;;;;;;5020387;28;20434;-76
2022/03/29 11:40:43;;;;;;;51.53;30.53;;;14.20;94.60;;;;;;5042707;28;20452;-75
2022/03/29 11:43:13;;;;;;;52.83;30.40;;;14.20;94.50;;;;;;5044730;28;20443;-75
2022/03/29 11:45:45;;;;;;;48.63;29.30;;;14.30;94.50;;;;;;5025157;28;20453;-76
2022/03/29 11:48:24;;;;;;;51.73;31.33;;;14.30;94.50;;;;;;5031539;28;20998;-78
2022/03/29 11:50:57;;;;;;;53.90;31.20;;;14.30;94.50;;;;;;5033416;22;20891;-75
2022/03/29 11:53:32;;;;;;;53.20;31.50;;;14.30;94.50;;;;;;5034852;28;20516;-67
2022/03/29 11:56:28;;;;;;;52.50;31.80;;;14.30;94.40;;;;;;5037159;28;20457;-68
2022/03/29 11:58:56;;;;;;;54.17;31.17;;;14.40;94.40;;;;;;5007114;28;20505;-68
2022/03/29 12:01:27;;;;;;;51.70;31.03;;;14.40;94.40;;;;;;5031031;28;20451;-69
2022/03/29 12:03:55;;;;;;;50.80;33.00;;;14.40;94.40;;;;;;5027250;28;20478;-73
2022/03/29 12:07:00;;;;;;;53.87;32.63;;;14.40;94.40;;;;;;5038744;28;20465;-72
2022/03/29 12:09:26;;;;;;;56.90;33.50;;;14.40;94.40;;;;;;5048692;28;20443;-75
2022/03/29 12:11:59;;;;;;;58.40;32.20;;;14.50;94.50;;;;;;5046249;28;20453;-74
2022/03/29 12:14:27;;;;;;;58.67;32.87;;;14.50;94.40;;;;;;5044795;28;20465;-71
2022/03/29 12:17:03;;;;;;;57.53;31.93;;;14.50;94.40;;;;;;5066536;28;20446;-71
2022/03/29 12:19:33;;;;;;;61.23;34.87;;;14.50;94.40;;;;;;5034852;28;20421;-72
2022/03/29 12:22:05;;;;;;;60.90;34.40;;;14.50;94.30;;;;;;5000178;28;20453;-72
2022/03/29 12:24:42;;;;;;;60.80;35.17;;;14.50;94.30;;;;;;5029865;28;20510;-71
2022/03/29 12:27:17;;;;;;;65.70;34.80;;;14.50;94.30;;;;;;5023885;28;20453;-71
2022/03/29 12:30:00;;;;;;;59.57;34.10;;;14.50;94.30;;;;;;5049126;28;20429;-71
2022/03/29 12:32:26;;;;;;;59.50;33.97;;;14.50;94.30;;;;;;5022793;28;20450;-72
2022/03/29 12:35:05;;;;;;;61.13;34.20;;;14.60;94.30;;;;;;5051808;28;20768;-71
2022/03/29 12:37:31;;;;;;;59.30;35.73;;;14.60;94.30;;;;;;5034079;28;20443;-71
2022/03/29 12:40:05;;;;;;;62.23;35.53;;;14.60;94.30;;;;;;5028389;28;20416;-73
2022/03/29 12:42:36;;;;;;;62.63;32.87;;;14.60;94.30;;;;;;5025527;28;20955;-74
2022/03/29 12:45:07;;;;;;;60.07;33.97;;;14.60;94.20;;;;;;5001537;28;20451;-74
2022/03/29 12:47:38;;;;;;;61.70;34.53;;;14.60;94.20;;;;;;5013656;28;20823;-72
2022/03/29 12:50:05;;;;;;;66.90;36.03;;;14.60;94.30;;;;;;5033723;28;20434;-73
2022/03/29 12:52:44;;;;;;;65.50;35.20;;;14.60;94.20;;;;;;5028577;28;20496;-73
2022/03/29 12:55:18;;;;;;;67.70;36.17;;;14.70;94.20;;;;;;5030588;28;20485;-73
2022/03/29 12:57:48;;;;;;;64.53;35.57;;;14.60;94.10;;;;;;5023363;28;20414;-74
2022/03/29 13:00:18;;;;;;;66.07;35.07;;;14.70;94.20;;;;;;5026483;28;20929;-73
2022/03/29 13:02:53;;;;;;;61.83;36.70;;;14.70;94.20;;;;;;5028619;28;20447;-71
2022/03/29 13:05:24;;;;;;;65.27;35.50;;;14.70;94.20;;;;;;5044042;28;20820;-74
2022/03/29 13:07:57;;;;;;;63.00;34.40;;;14.70;94.10;;;;;;5038244;28;20927;-71
2022/03/29 13:10:31;;;;;;;61.70;35.07;;;14.70;94.00;;;;;;5035883;28;20448;-69
2022/03/29 13:13:05;;;;;;;59.13;34.60;;;14.80;94.10;;;;;;5036387;28;20972;-70
2022/03/29 13:15:39;;;;;;;59.30;32.53;;;14.80;94.10;;;;;;5011896;28;20464;-70
2022/03/29 13:18:19;;;;;;;60.87;36.17;;;14.80;94.10;;;;;;5060562;28;20448;-69
2022/03/29 13:20:48;;;;;;;61.30;33.43;;;14.80;94.00;;;;;;5029963;28;20446;-69
2022/03/29 13:23:31;;;;;;;55.30;31.40;;;14.80;94.00;;;;;;5006889;28;21021;-70
2022/03/29 13:26:03;;;;;;;66.60;33.40;;;14.80;93.90;;;;;;5016464;28;20460;-69
2022/03/29 13:28:29;;;;;;;58.57;33.50;;;14.80;93.90;;;;;;5019173;28;20489;-68
2022/03/29 13:31:01;;;;;;;59.13;32.73;;;14.90;94.00;;;;;;5020362;28;20988;-67
2022/03/29 13:33:27;;;;;;;57.17;31.17;;;14.90;93.90;;;;;;5016135;28;20598;-68